createdAt,value
2019-03-27T00:00:04.446Z,11.25
2019-03-27T00:02:30.777Z,11.28
2019-03-27T00:04:57.079Z,11.25
2019-03-27T00:07:23.412Z,11.26
2019-03-27T00:09:49.735Z,11.27
2019-03-27T00:12:16.044Z,11.21
2019-03-27T00:14:42.355Z,11.17
2019-03-27T00:17:08.954Z,11.15
2019-03-27T00:19:35.264Z,11.16
2019-03-27T00:22:01.575Z,11.12
2019-03-27T00:24:27.900Z,11.13
2019-03-27T00:26:54.220Z,11.11
2019-03-27T00:29:20.539Z,11.04
2019-03-27T00:31:46.942Z,11.03
2019-03-27T00:34:13.213Z,11.03
2019-03-27T00:36:39.523Z,11.00
2019-03-27T00:39:05.850Z,10.99
2019-03-27T00:41:32.156Z,11.00
2019-03-27T00:43:58.477Z,10.98
2019-03-27T00:46:24.785Z,10.99
2019-03-27T00:48:51.095Z,10.99
2019-03-27T00:51:17.444Z,10.96
2019-03-27T00:53:45.100Z,10.92
2019-03-27T00:56:10.275Z,10.89
2019-03-27T00:58:36.588Z,10.91
2019-03-27T01:01:02.903Z,10.93
2019-03-27T01:03:29.210Z,10.93
2019-03-27T01:05:55.518Z,10.92
2019-03-27T01:08:21.832Z,10.93
2019-03-27T01:10:48.158Z,10.89
2019-03-27T01:13:14.537Z,10.87
2019-03-27T01:15:40.877Z,10.83
2019-03-27T01:18:07.184Z,10.82
2019-03-27T01:20:33.513Z,10.84
2019-03-27T01:22:59.849Z,10.88
2019-03-27T01:25:26.172Z,10.87
2019-03-27T01:27:52.505Z,10.86
2019-03-27T01:30:18.800Z,10.87
2019-03-27T01:32:45.113Z,10.86
2019-03-27T01:35:11.425Z,10.79
2019-03-27T01:37:38.748Z,10.78
2019-03-27T01:40:05.067Z,10.74
2019-03-27T01:42:31.394Z,10.75
2019-03-27T01:44:57.704Z,10.75
2019-03-27T01:47:24.088Z,10.76
2019-03-27T01:49:50.403Z,10.76
2019-03-27T01:52:16.715Z,10.77
2019-03-27T01:54:43.027Z,10.76
2019-03-27T01:57:09.332Z,10.77
2019-03-27T01:59:35.645Z,10.78
2019-03-27T02:02:01.961Z,10.80
2019-03-27T02:04:28.273Z,10.77
2019-03-27T02:06:54.590Z,10.72
2019-03-27T02:09:20.899Z,10.64
2019-03-27T02:11:47.214Z,10.68
2019-03-27T02:14:13.525Z,10.66
2019-03-27T02:16:39.855Z,10.64
2019-03-27T02:19:06.161Z,10.69
2019-03-27T02:21:32.469Z,10.69
2019-03-27T02:23:58.782Z,10.65
2019-03-27T02:26:25.087Z,10.64
2019-03-27T02:28:51.396Z,10.62
2019-03-27T02:31:17.892Z,10.62
2019-03-27T02:33:44.274Z,10.60
2019-03-27T02:36:10.585Z,10.57
2019-03-27T02:38:36.906Z,10.58
2019-03-27T02:41:03.211Z,10.56
2019-03-27T02:43:29.516Z,10.56
2019-03-27T02:45:55.825Z,10.57
2019-03-27T02:48:22.137Z,10.58
2019-03-27T02:50:48.445Z,10.50
2019-03-27T02:53:14.758Z,10.53
2019-03-27T02:55:41.067Z,10.47
2019-03-27T02:58:07.369Z,10.46
2019-03-27T03:00:33.699Z,10.50
2019-03-27T03:02:59.989Z,10.47
2019-03-27T03:05:26.329Z,10.46
2019-03-27T03:07:52.628Z,10.42
2019-03-27T03:10:18.924Z,10.41
2019-03-27T03:12:45.233Z,10.43
2019-03-27T03:15:11.554Z,10.40
2019-03-27T03:17:38.110Z,10.42
2019-03-27T03:20:04.410Z,10.45
2019-03-27T03:22:30.739Z,10.42
2019-03-27T03:24:57.049Z,10.35
2019-03-27T03:27:23.359Z,10.37
2019-03-27T03:29:49.667Z,10.38
2019-03-27T03:32:15.977Z,10.33
2019-03-27T03:34:42.297Z,10.31
2019-03-27T03:37:08.593Z,10.30
2019-03-27T03:39:34.922Z,10.29
2019-03-27T03:42:01.243Z,10.27
2019-03-27T03:44:27.552Z,10.22
2019-03-27T03:46:59.920Z,10.18
2019-03-27T03:49:20.146Z,10.15
2019-03-27T03:51:46.448Z,10.24
2019-03-27T03:54:12.807Z,10.23
2019-03-27T03:56:39.071Z,10.23
2019-03-27T03:59:05.372Z,10.20
2019-03-27T04:01:31.683Z,10.17
2019-03-27T04:03:57.993Z,10.07
2019-03-27T04:06:24.329Z,10.06
2019-03-27T04:08:50.633Z,10.03
2019-03-27T04:11:16.935Z,10.05
2019-03-27T04:13:43.394Z,10.05
2019-03-27T04:16:09.553Z,10.10
2019-03-27T04:18:35.887Z,10.12
2019-03-27T04:21:02.247Z,10.02
2019-03-27T04:23:28.544Z,10.03
2019-03-27T04:26:09.267Z,10.01
2019-03-27T04:28:21.198Z,9.96
2019-03-27T04:30:47.504Z,9.93
2019-03-27T04:33:13.812Z,9.90
2019-03-27T04:35:40.115Z,9.92
2019-03-27T04:38:06.456Z,9.97
2019-03-27T04:40:32.766Z,9.99
2019-03-27T04:42:59.081Z,10.00
2019-03-27T04:45:25.395Z,10.00
2019-03-27T04:47:51.705Z,10.03
2019-03-27T04:50:18.017Z,10.02
2019-03-27T04:52:44.324Z,10.02
2019-03-27T04:55:10.634Z,10.07
2019-03-27T04:57:36.949Z,10.09
2019-03-27T05:00:03.279Z,10.14
2019-03-27T05:02:29.585Z,10.15
2019-03-27T05:04:55.898Z,10.19
2019-03-27T05:07:22.207Z,10.22
2019-03-27T05:09:48.513Z,10.26
2019-03-27T05:12:14.905Z,10.29
2019-03-27T05:14:41.182Z,10.30
2019-03-27T05:17:07.488Z,10.33
2019-03-27T05:19:33.837Z,10.38
2019-03-27T05:22:00.142Z,10.47
2019-03-27T05:24:26.473Z,10.56
2019-03-27T05:26:52.955Z,10.59
2019-03-27T05:29:19.262Z,10.61
2019-03-27T05:31:46.335Z,10.68
2019-03-27T05:34:12.661Z,10.78
2019-03-27T05:36:38.971Z,10.91
2019-03-27T05:39:05.281Z,10.97
2019-03-27T05:41:31.593Z,11.06
2019-03-27T05:43:58.071Z,11.18
2019-03-27T05:46:26.548Z,11.31
2019-03-27T05:48:50.685Z,11.81
2019-03-27T05:51:16.990Z,12.49
2019-03-27T05:53:43.296Z,12.92
2019-03-27T05:56:09.636Z,13.21
2019-03-27T05:58:35.995Z,13.14
2019-03-27T06:01:02.303Z,12.84
2019-03-27T06:03:28.607Z,12.69
2019-03-27T06:05:54.952Z,12.59
2019-03-27T06:08:21.252Z,12.49
2019-03-27T06:10:47.559Z,12.53
2019-03-27T06:13:13.898Z,12.56
2019-03-27T06:15:40.208Z,12.59
2019-03-27T06:18:12.969Z,12.61
2019-03-27T06:20:32.889Z,12.69
2019-03-27T06:22:59.197Z,12.81
2019-03-27T06:25:25.516Z,13.00
2019-03-27T06:27:51.926Z,13.20
2019-03-27T06:30:18.225Z,13.33
2019-03-27T06:32:44.572Z,13.35
2019-03-27T06:35:10.885Z,13.36
2019-03-27T06:37:37.202Z,13.43
2019-03-27T06:40:03.511Z,13.51
2019-03-27T06:42:30.083Z,13.61
2019-03-27T06:44:56.478Z,13.68
2019-03-27T06:47:22.789Z,13.76
2019-03-27T06:49:49.108Z,13.86
2019-03-27T06:52:15.417Z,13.96
2019-03-27T06:54:41.744Z,13.93
2019-03-27T06:57:08.059Z,13.80
2019-03-27T06:59:34.397Z,13.69
2019-03-27T07:02:00.701Z,13.60
2019-03-27T07:04:27.031Z,13.59
2019-03-27T07:06:53.327Z,13.60
2019-03-27T07:09:19.643Z,13.60
2019-03-27T07:11:45.957Z,13.53
2019-03-27T07:14:12.264Z,13.41
2019-03-27T07:16:38.594Z,13.23
2019-03-27T07:19:04.914Z,13.10
2019-03-27T07:21:31.227Z,13.04
2019-03-27T07:23:57.584Z,12.94
2019-03-27T07:26:23.895Z,12.93
2019-03-27T07:28:50.223Z,12.90
2019-03-27T07:31:16.527Z,12.88
2019-03-27T07:33:42.837Z,12.78
2019-03-27T07:36:09.146Z,12.74
2019-03-27T07:38:35.460Z,12.73
2019-03-27T07:41:01.762Z,12.75
2019-03-27T07:43:28.207Z,12.76
2019-03-27T07:45:54.506Z,12.73
2019-03-27T07:48:20.829Z,12.64
2019-03-27T07:50:47.130Z,12.60
2019-03-27T07:53:13.458Z,12.52
2019-03-27T07:55:39.838Z,12.55
2019-03-27T07:58:06.148Z,12.60
2019-03-27T08:00:32.468Z,12.67
2019-03-27T08:02:58.787Z,12.71
2019-03-27T08:05:25.216Z,12.73
2019-03-27T08:07:51.437Z,12.70
2019-03-27T08:10:17.748Z,12.68
2019-03-27T08:12:44.126Z,12.62
2019-03-27T08:15:10.428Z,12.56
2019-03-27T08:17:36.732Z,12.57
2019-03-27T08:20:03.039Z,12.58
2019-03-27T08:22:29.364Z,12.70
2019-03-27T08:24:55.666Z,12.66
2019-03-27T08:27:21.973Z,12.57
2019-03-27T08:29:48.290Z,12.52
2019-03-27T08:32:14.596Z,12.52
2019-03-27T08:34:40.910Z,12.83
2019-03-27T08:37:07.321Z,13.31
2019-03-27T08:39:33.620Z,13.92
2019-03-27T08:41:59.925Z,14.47
2019-03-27T08:44:26.238Z,14.75
2019-03-27T08:46:52.553Z,15.04
2019-03-27T08:49:22.290Z,15.25
2019-03-27T08:51:45.199Z,15.53
2019-03-27T08:54:11.504Z,15.75
2019-03-27T08:56:37.831Z,15.77
2019-03-27T08:59:04.136Z,15.64
2019-03-27T09:01:30.441Z,15.51
2019-03-27T09:03:56.752Z,15.57
2019-03-27T09:06:33.012Z,15.64
2019-03-27T09:08:49.376Z,15.70
2019-03-27T09:11:15.707Z,15.78
2019-03-27T09:13:42.024Z,15.68
2019-03-27T09:16:08.335Z,15.51
2019-03-27T09:18:34.644Z,15.71
2019-03-27T09:21:00.957Z,15.95
2019-03-27T09:23:27.259Z,16.11
2019-03-27T09:25:53.563Z,16.28
2019-03-27T09:28:19.878Z,16.38
2019-03-27T09:30:46.191Z,16.52
2019-03-27T09:33:12.526Z,16.63
2019-03-27T09:35:38.836Z,16.89
2019-03-27T09:38:05.160Z,17.06
2019-03-27T09:40:31.451Z,17.23
2019-03-27T09:42:57.759Z,17.44
2019-03-27T09:45:24.073Z,17.69
2019-03-27T09:47:50.396Z,17.94
2019-03-27T09:50:16.728Z,18.07
2019-03-27T09:52:43.053Z,18.14
2019-03-27T09:55:09.366Z,18.21
2019-03-27T09:57:35.668Z,18.25
2019-03-27T10:00:01.984Z,18.31
2019-03-27T10:02:28.296Z,18.45
2019-03-27T10:04:56.079Z,18.53
2019-03-27T10:07:20.908Z,18.54
2019-03-27T10:09:50.211Z,18.54
2019-03-27T10:12:13.523Z,18.62
2019-03-27T10:14:39.837Z,18.69
2019-03-27T10:17:06.184Z,18.69
2019-03-27T10:19:32.488Z,18.86
2019-03-27T10:21:58.794Z,18.96
2019-03-27T10:24:25.106Z,18.88
2019-03-27T10:26:51.419Z,18.90
2019-03-27T10:29:17.728Z,18.99
2019-03-27T10:31:44.038Z,19.06
2019-03-27T10:34:10.352Z,19.08
2019-03-27T10:36:36.661Z,19.16
2019-03-27T10:39:02.993Z,19.31
2019-03-27T10:41:29.378Z,19.50
2019-03-27T10:43:55.611Z,19.56
2019-03-27T10:46:21.986Z,19.65
2019-03-27T10:48:52.857Z,19.72
2019-03-27T10:51:14.582Z,19.74
2019-03-27T10:53:40.893Z,19.78
2019-03-27T10:56:07.201Z,19.79
2019-03-27T10:58:33.516Z,19.78
2019-03-27T11:00:59.816Z,19.72
2019-03-27T11:03:26.135Z,19.69
2019-03-27T11:05:52.428Z,19.62
2019-03-27T11:08:18.747Z,19.59
2019-03-27T11:10:45.055Z,19.63
2019-03-27T11:13:11.409Z,19.70
2019-03-27T11:15:37.717Z,19.77
2019-03-27T11:18:04.022Z,19.78
2019-03-27T11:20:31.500Z,19.78
2019-03-27T11:22:56.706Z,19.77
2019-03-27T11:25:23.029Z,19.79
2019-03-27T11:27:49.348Z,19.81
2019-03-27T11:30:15.662Z,19.81
2019-03-27T11:32:41.967Z,19.77
2019-03-27T11:35:08.310Z,19.75
2019-03-27T11:37:34.607Z,19.71
2019-03-27T11:40:00.913Z,19.74
2019-03-27T11:42:27.224Z,19.77
2019-03-27T11:44:53.529Z,19.82
2019-03-27T11:47:19.841Z,19.86
2019-03-27T11:49:46.149Z,19.92
2019-03-27T11:52:12.460Z,19.98
2019-03-27T11:54:39.108Z,19.98
2019-03-27T11:57:05.461Z,19.93
2019-03-27T11:59:31.769Z,19.93
2019-03-27T12:01:58.103Z,19.86
2019-03-27T12:04:24.412Z,19.75
2019-03-27T12:06:50.720Z,19.75
2019-03-27T12:09:17.093Z,19.77
2019-03-27T12:11:43.349Z,19.80
2019-03-27T12:14:12.169Z,19.84
2019-03-27T12:16:35.964Z,19.90
2019-03-27T12:19:02.393Z,19.90
2019-03-27T12:21:28.727Z,19.85
2019-03-27T12:23:55.033Z,19.77
2019-03-27T12:26:21.355Z,19.73
2019-03-27T12:28:47.659Z,19.76
2019-03-27T12:31:13.970Z,19.77
2019-03-27T12:33:40.272Z,19.77
2019-03-27T12:36:06.607Z,19.74
2019-03-27T12:38:32.959Z,19.77
2019-03-27T12:40:59.345Z,19.76
2019-03-27T12:43:25.642Z,19.79
2019-03-27T12:45:51.949Z,19.81
2019-03-27T12:48:18.265Z,19.84
2019-03-27T12:50:44.641Z,19.78
2019-03-27T12:53:10.889Z,19.70
2019-03-27T12:55:37.191Z,19.66
2019-03-27T12:58:03.565Z,19.60
2019-03-27T13:00:29.873Z,19.57
2019-03-27T13:02:56.181Z,19.58
2019-03-27T13:05:22.511Z,19.59
2019-03-27T13:07:50.283Z,19.56
2019-03-27T13:10:15.140Z,19.52
2019-03-27T13:12:41.453Z,19.51
2019-03-27T13:15:07.761Z,19.46
2019-03-27T13:17:34.437Z,19.35
2019-03-27T13:20:00.518Z,19.40
2019-03-27T13:22:26.690Z,19.46
2019-03-27T13:24:53.025Z,19.39
2019-03-27T13:27:19.334Z,19.30
2019-03-27T13:29:45.640Z,19.22
2019-03-27T13:32:11.953Z,19.19
2019-03-27T13:34:38.262Z,19.11
2019-03-27T13:37:04.573Z,18.99
2019-03-27T13:39:30.876Z,18.84
2019-03-27T13:41:57.203Z,18.74
2019-03-27T13:44:36.305Z,18.64
2019-03-27T13:46:49.885Z,18.58
2019-03-27T13:49:16.126Z,18.60
2019-03-27T13:51:42.436Z,18.62
2019-03-27T13:54:08.745Z,18.59
2019-03-27T13:56:35.054Z,18.53
2019-03-27T13:59:01.364Z,18.48
2019-03-27T14:01:27.674Z,18.37
2019-03-27T14:03:53.991Z,18.28
2019-03-27T14:06:20.298Z,18.22
2019-03-27T14:08:46.643Z,18.19
2019-03-27T14:11:12.917Z,18.21
2019-03-27T14:13:39.226Z,18.16
2019-03-27T14:16:05.557Z,18.04
2019-03-27T14:18:31.877Z,18.01
2019-03-27T14:20:58.202Z,18.01
2019-03-27T14:23:24.504Z,17.98
2019-03-27T14:25:50.817Z,17.91
2019-03-27T14:28:17.120Z,17.85
2019-03-27T14:30:43.427Z,17.82
2019-03-27T14:33:09.756Z,17.77
2019-03-27T14:35:36.069Z,17.80
2019-03-27T14:38:02.392Z,17.78
2019-03-27T14:40:28.700Z,17.70
2019-03-27T14:42:55.007Z,17.63
2019-03-27T14:45:21.317Z,17.64
2019-03-27T14:47:47.644Z,17.60
2019-03-27T14:50:13.955Z,17.56
2019-03-27T14:52:40.272Z,17.46
2019-03-27T14:55:06.628Z,17.40
2019-03-27T14:57:32.935Z,17.36
2019-03-27T14:59:59.536Z,17.35
2019-03-27T15:02:25.841Z,17.33
2019-03-27T15:04:52.148Z,17.27
2019-03-27T15:07:18.480Z,17.21
2019-03-27T15:09:44.791Z,17.20
2019-03-27T15:12:11.104Z,17.21
2019-03-27T15:14:37.438Z,17.12
2019-03-27T15:17:03.737Z,17.15
2019-03-27T15:19:30.035Z,17.06
2019-03-27T15:21:56.373Z,17.01
2019-03-27T15:24:22.681Z,16.97
2019-03-27T15:26:48.988Z,16.95
2019-03-27T15:29:15.325Z,16.95
2019-03-27T15:31:41.652Z,16.95
2019-03-27T15:34:07.963Z,16.91
2019-03-27T15:36:34.481Z,16.89
2019-03-27T15:39:00.817Z,16.87
2019-03-27T15:41:27.123Z,16.84
2019-03-27T15:43:53.435Z,16.77
2019-03-27T15:46:19.812Z,16.74
2019-03-27T15:48:46.138Z,16.68
2019-03-27T15:51:12.453Z,16.65
2019-03-27T15:53:38.761Z,16.66
2019-03-27T15:56:05.084Z,16.63
2019-03-27T15:58:31.397Z,16.61
2019-03-27T16:00:57.705Z,16.56
2019-03-27T16:03:24.008Z,16.49
2019-03-27T16:05:50.324Z,16.43
2019-03-27T16:08:16.624Z,16.39
2019-03-27T16:10:43.012Z,16.35
2019-03-27T16:13:09.327Z,16.31
2019-03-27T16:15:37.221Z,16.25
2019-03-27T16:18:01.944Z,16.19
2019-03-27T16:20:28.248Z,16.16
2019-03-27T16:22:54.550Z,16.14
2019-03-27T16:25:20.863Z,16.12
2019-03-27T16:27:47.175Z,16.06
2019-03-27T16:30:16.880Z,16.02
2019-03-27T16:32:39.792Z,15.99
2019-03-27T16:35:06.100Z,15.97
2019-03-27T16:37:32.434Z,15.93
2019-03-27T16:39:58.750Z,15.88
2019-03-27T16:42:25.060Z,15.83
2019-03-27T16:44:51.375Z,15.82
2019-03-27T16:47:17.678Z,15.79
2019-03-27T16:49:43.989Z,15.73
2019-03-27T16:52:10.335Z,15.70
2019-03-27T16:54:36.651Z,15.66
2019-03-27T16:57:02.986Z,15.61
2019-03-27T16:59:29.345Z,15.59
2019-03-27T17:01:55.655Z,15.56
2019-03-27T17:04:21.959Z,15.52
2019-03-27T17:06:48.274Z,15.48
2019-03-27T17:09:14.582Z,15.49
2019-03-27T17:11:40.920Z,15.44
2019-03-27T17:14:07.297Z,15.45
2019-03-27T17:16:33.601Z,15.39
2019-03-27T17:18:59.909Z,15.32
2019-03-27T17:21:26.227Z,15.26
2019-03-27T17:23:52.575Z,15.20
2019-03-27T17:26:18.888Z,15.15
2019-03-27T17:28:45.203Z,15.13
2019-03-27T17:31:11.500Z,15.12
2019-03-27T17:33:37.813Z,15.04
2019-03-27T17:36:04.283Z,15.01
2019-03-27T17:38:30.447Z,15.05
2019-03-27T17:40:56.762Z,15.00
2019-03-27T17:43:23.079Z,15.01
2019-03-27T17:45:49.389Z,15.00
2019-03-27T17:48:15.714Z,14.98
2019-03-27T17:50:42.044Z,14.94
2019-03-27T17:53:08.351Z,14.83
2019-03-27T17:55:34.670Z,14.81
2019-03-27T17:58:00.972Z,14.78
2019-03-27T18:00:27.280Z,14.75
2019-03-27T18:02:53.626Z,14.58
2019-03-27T18:05:19.962Z,14.54
2019-03-27T18:07:46.282Z,14.41
2019-03-27T18:10:12.589Z,14.31
2019-03-27T18:12:38.919Z,14.31
2019-03-27T18:15:05.225Z,14.20
2019-03-27T18:17:31.552Z,14.16
2019-03-27T18:19:57.861Z,14.19
2019-03-27T18:22:24.202Z,14.18
2019-03-27T18:24:50.568Z,14.18
2019-03-27T18:27:16.896Z,14.12
2019-03-27T18:29:43.340Z,14.12
2019-03-27T18:32:09.736Z,14.09
2019-03-27T18:34:37.517Z,14.02
2019-03-27T18:37:03.944Z,13.99
2019-03-27T18:39:30.293Z,13.95
2019-03-27T18:41:56.725Z,13.94
2019-03-27T18:44:22.996Z,13.86
2019-03-27T18:46:49.306Z,13.82
2019-03-27T18:49:15.607Z,13.80
2019-03-27T18:51:41.918Z,13.73
2019-03-27T18:54:08.231Z,13.67
2019-03-27T18:56:34.572Z,13.68
2019-03-27T18:59:00.892Z,13.64
2019-03-27T19:01:27.195Z,13.59
2019-03-27T19:03:53.503Z,13.60
2019-03-27T19:06:19.817Z,13.56
2019-03-27T19:08:46.265Z,13.48
2019-03-27T19:11:12.534Z,13.43
2019-03-27T19:13:38.876Z,13.39
2019-03-27T19:16:05.174Z,13.39
2019-03-27T19:18:31.505Z,13.36
2019-03-27T19:20:57.810Z,13.33
2019-03-27T19:23:24.117Z,13.36
2019-03-27T19:25:50.427Z,13.36
2019-03-27T19:28:16.727Z,13.31
2019-03-27T19:30:43.065Z,13.33
2019-03-27T19:33:09.370Z,13.35
2019-03-27T19:35:35.702Z,13.29
2019-03-27T19:38:02.009Z,13.25
2019-03-27T19:40:28.319Z,13.23
2019-03-27T19:42:54.624Z,13.18
2019-03-27T19:45:20.954Z,13.12
2019-03-27T19:47:47.265Z,13.08
2019-03-27T19:50:13.600Z,13.01
2019-03-27T19:52:39.906Z,13.00
2019-03-27T19:55:06.239Z,12.94
2019-03-27T19:57:32.546Z,12.91
2019-03-27T19:59:58.863Z,12.88
2019-03-27T20:02:25.168Z,12.87
2019-03-27T20:04:51.484Z,12.81
2019-03-27T20:07:17.818Z,12.83
2019-03-27T20:09:44.123Z,12.75
2019-03-27T20:12:10.432Z,12.73
2019-03-27T20:14:36.743Z,12.71
2019-03-27T20:17:03.051Z,12.70
2019-03-27T20:19:29.350Z,12.69
2019-03-27T20:21:55.657Z,13.11
2019-03-27T20:24:21.958Z,13.54
2019-03-27T20:26:48.271Z,13.72
2019-03-27T20:29:14.576Z,13.78
2019-03-27T20:31:40.889Z,13.81
2019-03-27T20:34:07.197Z,13.82
2019-03-27T20:36:33.502Z,13.83
2019-03-27T20:38:59.801Z,13.84
2019-03-27T20:41:26.133Z,13.83
2019-03-27T20:43:52.438Z,13.84
2019-03-27T20:46:24.993Z,13.83
2019-03-27T20:48:45.047Z,13.83
2019-03-27T20:51:11.358Z,13.83
2019-03-27T20:53:37.663Z,13.83
2019-03-27T20:56:03.966Z,13.83
2019-03-27T20:58:30.281Z,13.81
2019-03-27T21:00:56.596Z,13.82
2019-03-27T21:03:22.922Z,13.91
2019-03-27T21:05:49.230Z,14.36
2019-03-27T21:08:15.531Z,14.42
2019-03-27T21:10:41.838Z,14.37
2019-03-27T21:13:08.147Z,14.31
2019-03-27T21:15:34.458Z,14.25
2019-03-27T21:18:00.767Z,14.19
2019-03-27T21:20:27.077Z,14.14
2019-03-27T21:22:53.393Z,14.10
2019-03-27T21:25:19.696Z,14.08
2019-03-27T21:27:46.025Z,14.05
2019-03-27T21:30:12.339Z,14.02
2019-03-27T21:32:38.651Z,14.01
2019-03-27T21:35:05.038Z,13.99
2019-03-27T21:37:31.344Z,13.95
2019-03-27T21:39:57.654Z,14.03
2019-03-27T21:42:23.955Z,14.09
2019-03-27T21:44:50.260Z,14.08
2019-03-27T21:47:16.576Z,14.06
2019-03-27T21:49:42.882Z,14.02
2019-03-27T21:52:09.183Z,13.99
2019-03-27T21:54:35.488Z,13.96
2019-03-27T21:57:01.793Z,13.93
2019-03-27T21:59:28.098Z,13.91
2019-03-27T22:01:54.409Z,13.86
2019-03-27T22:04:20.729Z,13.86
2019-03-27T22:06:47.043Z,13.85
2019-03-27T22:09:13.339Z,13.83
2019-03-27T22:11:39.725Z,13.80
2019-03-27T22:14:06.027Z,13.78
2019-03-27T22:16:32.340Z,13.73
2019-03-27T22:18:58.640Z,13.75
2019-03-27T22:21:24.942Z,13.72
2019-03-27T22:23:51.269Z,13.71
2019-03-27T22:26:17.585Z,13.69
2019-03-27T22:28:43.885Z,13.67
2019-03-27T22:31:10.186Z,13.66
2019-03-27T22:33:36.802Z,13.60
2019-03-27T22:36:03.109Z,13.62
2019-03-27T22:38:29.415Z,13.60
2019-03-27T22:40:55.715Z,13.58
2019-03-27T22:43:22.034Z,13.55
2019-03-27T22:45:48.350Z,13.53
2019-03-27T22:48:14.670Z,13.53
2019-03-27T22:50:40.977Z,13.51
2019-03-27T22:53:07.279Z,13.49
2019-03-27T22:55:33.590Z,13.48
2019-03-27T22:57:59.899Z,13.45
2019-03-27T23:00:26.203Z,13.44
2019-03-27T23:02:52.503Z,13.43
2019-03-27T23:05:19.132Z,13.42
2019-03-27T23:07:45.434Z,13.40
2019-03-27T23:10:11.741Z,13.38
2019-03-27T23:12:38.044Z,13.35
2019-03-27T23:15:04.468Z,13.36
2019-03-27T23:17:30.898Z,13.34
2019-03-27T23:19:57.196Z,13.32
2019-03-27T23:22:23.503Z,13.30
2019-03-27T23:24:52.604Z,13.29
2019-03-27T23:27:18.940Z,13.28
2019-03-27T23:29:45.272Z,13.25
2019-03-27T23:32:11.575Z,13.24
2019-03-27T23:34:37.878Z,13.24
2019-03-27T23:37:04.178Z,13.23
2019-03-27T23:39:30.488Z,13.20
2019-03-27T23:41:56.792Z,13.20
2019-03-27T23:44:23.103Z,13.19
2019-03-27T23:46:49.412Z,13.17
2019-03-27T23:49:15.752Z,13.18
2019-03-27T23:51:42.055Z,13.16
2019-03-27T23:54:08.375Z,13.15
2019-03-27T23:56:34.679Z,13.13
2019-03-27T23:59:00.983Z,13.12
